METAR Data
IDs: Format: Raw Decoded Include TAF

Data at: 1350 UTC 26 Feb 2021

KMRT 261335Z AUTO 11005KT 10SM CLR M02/M05 A3032 RMK AO2 T10251047